sensor_id;sensor_type;location;lat;lon;timestamp;temperature;humidity
59208;DHT22;44977;53.132;6.408;2024-03-06T00:02:08;5.20;99.90
59208;DHT22;44977;53.132;6.408;2024-03-06T00:07:08;5.20;99.90
59208;DHT22;44977;53.132;6.408;2024-03-06T00:12:09;5.10;99.90
59208;DHT22;44977;53.132;6.408;2024-03-06T00:17:10;5.10;99.90
59208;DHT22;44977;53.132;6.408;2024-03-06T00:22:10;5.10;99.90
59208;DHT22;44977;53.132;6.408;2024-03-06T00:27:11;5.10;99.90
59208;DHT22;44977;53.132;6.408;2024-03-06T00:32:15;5.10;99.90
59208;DHT22;44977;53.132;6.408;2024-03-06T00:37:15;5.00;99.90
59208;DHT22;44977;53.132;6.408;2024-03-06T00:42:16;5.00;99.90
59208;DHT22;44977;53.132;6.408;2024-03-06T00:47:17;5.00;99.90
59208;DHT22;44977;53.132;6.408;2024-03-06T00:52:17;5.00;99.90
59208;DHT22;44977;53.132;6.408;2024-03-06T00:57:24;5.00;99.90
59208;DHT22;44977;53.132;6.408;2024-03-06T01:02:26;5.00;99.90
59208;DHT22;44977;53.132;6.408;2024-03-06T01:07:27;5.00;99.90
59208;DHT22;44977;53.132;6.408;2024-03-06T01:12:28;5.00;99.90
59208;DHT22;44977;53.132;6.408;2024-03-06T01:17:35;4.90;99.90
59208;DHT22;44977;53.132;6.408;2024-03-06T01:22:35;4.90;99.90
59208;DHT22;44977;53.132;6.408;2024-03-06T01:27:36;4.90;99.90
59208;DHT22;44977;53.132;6.408;2024-03-06T01:32:50;4.90;99.90
59208;DHT22;44977;53.132;6.408;2024-03-06T01:37:50;4.90;99.90
59208;DHT22;44977;53.132;6.408;2024-03-06T01:42:54;4.90;99.90
59208;DHT22;44977;53.132;6.408;2024-03-06T01:48:01;4.90;99.90
59208;DHT22;44977;53.132;6.408;2024-03-06T01:53:01;4.90;99.90
59208;DHT22;44977;53.132;6.408;2024-03-06T01:58:21;4.90;99.90
59208;DHT22;44977;53.132;6.408;2024-03-06T02:03:47;4.90;99.90
59208;DHT22;44977;53.132;6.408;2024-03-06T02:08:54;4.90;99.90
59208;DHT22;44977;53.132;6.408;2024-03-06T02:13:55;4.80;99.90
59208;DHT22;44977;53.132;6.408;2024-03-06T02:18:56;4.90;99.90
59208;DHT22;44977;53.132;6.408;2024-03-06T02:23:58;4.90;99.90
59208;DHT22;44977;53.132;6.408;2024-03-06T02:29:01;4.80;99.90
59208;DHT22;44977;53.132;6.408;2024-03-06T02:34:02;4.80;99.90
59208;DHT22;44977;53.132;6.408;2024-03-06T02:39:12;4.80;99.90
59208;DHT22;44977;53.132;6.408;2024-03-06T02:44:13;4.80;99.90
59208;DHT22;44977;53.132;6.408;2024-03-06T02:49:18;4.80;99.90
59208;DHT22;44977;53.132;6.408;2024-03-06T02:54:19;4.80;99.90
59208;DHT22;44977;53.132;6.408;2024-03-06T02:59:20;4.80;99.90
59208;DHT22;44977;53.132;6.408;2024-03-06T03:04:20;4.80;99.90
59208;DHT22;44977;53.132;6.408;2024-03-06T03:09:21;4.80;99.90
59208;DHT22;44977;53.132;6.408;2024-03-06T03:14:22;4.80;99.90
59208;DHT22;44977;53.132;6.408;2024-03-06T03:19:28;4.80;99.90
59208;DHT22;44977;53.132;6.408;2024-03-06T03:24:36;4.70;99.90
59208;DHT22;44977;53.132;6.408;2024-03-06T03:29:37;4.70;99.90
59208;DHT22;44977;53.132;6.408;2024-03-06T03:34:38;4.70;99.90
59208;DHT22;44977;53.132;6.408;2024-03-06T03:39:39;4.70;99.90
59208;DHT22;44977;53.132;6.408;2024-03-06T03:44:40;4.70;99.90
59208;DHT22;44977;53.132;6.408;2024-03-06T03:49:40;4.70;99.90
59208;DHT22;44977;53.132;6.408;2024-03-06T03:54:41;4.70;99.90
59208;DHT22;44977;53.132;6.408;2024-03-06T03:59:42;4.70;99.90
59208;DHT22;44977;53.132;6.408;2024-03-06T04:04:42;4.70;99.90
59208;DHT22;44977;53.132;6.408;2024-03-06T04:09:43;4.70;99.90
59208;DHT22;44977;53.132;6.408;2024-03-06T04:14:44;4.70;99.90
59208;DHT22;44977;53.132;6.408;2024-03-06T04:19:44;4.60;99.90
59208;DHT22;44977;53.132;6.408;2024-03-06T04:24:45;4.60;99.90
59208;DHT22;44977;53.132;6.408;2024-03-06T04:29:46;4.60;99.90
59208;DHT22;44977;53.132;6.408;2024-03-06T04:34:46;4.60;99.90
59208;DHT22;44977;53.132;6.408;2024-03-06T04:39:48;4.60;99.90
59208;DHT22;44977;53.132;6.408;2024-03-06T04:44:48;4.60;99.90
59208;DHT22;44977;53.132;6.408;2024-03-06T04:49:49;4.60;99.90
59208;DHT22;44977;53.132;6.408;2024-03-06T04:54:50;4.60;99.90
59208;DHT22;44977;53.132;6.408;2024-03-06T04:59:51;4.60;99.90
59208;DHT22;44977;53.132;6.408;2024-03-06T05:04:52;4.60;99.90
59208;DHT22;44977;53.132;6.408;2024-03-06T05:09:53;4.60;99.90
59208;DHT22;44977;53.132;6.408;2024-03-06T05:15:03;4.60;99.90
59208;DHT22;44977;53.132;6.408;2024-03-06T05:20:04;4.50;99.90
59208;DHT22;44977;53.132;6.408;2024-03-06T05:25:05;4.50;99.90
59208;DHT22;44977;53.132;6.408;2024-03-06T05:30:07;4.60;99.90
59208;DHT22;44977;53.132;6.408;2024-03-06T05:35:09;4.50;99.90
59208;DHT22;44977;53.132;6.408;2024-03-06T05:40:12;4.50;99.90
59208;DHT22;44977;53.132;6.408;2024-03-06T05:45:13;4.50;99.90
59208;DHT22;44977;53.132;6.408;2024-03-06T05:50:14;4.50;99.90
59208;DHT22;44977;53.132;6.408;2024-03-06T05:55:16;4.50;99.90
59208;DHT22;44977;53.132;6.408;2024-03-06T06:00:16;4.50;99.90
59208;DHT22;44977;53.132;6.408;2024-03-06T06:05:18;4.50;99.90
59208;DHT22;44977;53.132;6.408;2024-03-06T06:10:23;4.50;99.90
59208;DHT22;44977;53.132;6.408;2024-03-06T06:15:23;4.50;99.90
59208;DHT22;44977;53.132;6.408;2024-03-06T06:20:24;4.50;99.90
59208;DHT22;44977;53.132;6.408;2024-03-06T06:25:25;4.50;99.90
59208;DHT22;44977;53.132;6.408;2024-03-06T06:30:25;4.50;99.90
59208;DHT22;44977;53.132;6.408;2024-03-06T06:35:26;4.50;99.90
59208;DHT22;44977;53.132;6.408;2024-03-06T06:40:32;4.50;99.90
59208;DHT22;44977;53.132;6.408;2024-03-06T06:45:33;4.50;99.90
59208;DHT22;44977;53.132;6.408;2024-03-06T06:50:34;4.50;99.90
59208;DHT22;44977;53.132;6.408;2024-03-06T06:55:34;4.40;99.90
59208;DHT22;44977;53.132;6.408;2024-03-06T07:00:36;4.40;99.90
59208;DHT22;44977;53.132;6.408;2024-03-06T07:05:40;4.40;99.90
59208;DHT22;44977;53.132;6.408;2024-03-06T07:10:50;4.40;99.90
59208;DHT22;44977;53.132;6.408;2024-03-06T07:15:55;4.40;99.90
59208;DHT22;44977;53.132;6.408;2024-03-06T07:20:58;4.50;99.90
59208;DHT22;44977;53.132;6.408;2024-03-06T07:25:59;4.50;99.90
59208;DHT22;44977;53.132;6.408;2024-03-06T07:31:00;4.50;99.90
59208;DHT22;44977;53.132;6.408;2024-03-06T07:36:00;4.50;99.90
59208;DHT22;44977;53.132;6.408;2024-03-06T07:41:01;4.50;99.90
59208;DHT22;44977;53.132;6.408;2024-03-06T07:46:02;4.60;99.90
59208;DHT22;44977;53.132;6.408;2024-03-06T07:51:03;4.60;99.90
59208;DHT22;44977;53.132;6.408;2024-03-06T07:56:04;4.60;99.90
59208;DHT22;44977;53.132;6.408;2024-03-06T08:01:09;4.60;99.90
59208;DHT22;44977;53.132;6.408;2024-03-06T08:06:11;4.60;99.90
59208;DHT22;44977;53.132;6.408;2024-03-06T08:11:12;4.70;99.90
59208;DHT22;44977;53.132;6.408;2024-03-06T08:16:13;4.70;99.90
59208;DHT22;44977;53.132;6.408;2024-03-06T08:21:14;4.80;99.90
59208;DHT22;44977;53.132;6.408;2024-03-06T08:26:17;4.80;99.90
59208;DHT22;44977;53.132;6.408;2024-03-06T08:31:18;4.80;99.90
59208;DHT22;44977;53.132;6.408;2024-03-06T08:36:19;4.80;99.90
59208;DHT22;44977;53.132;6.408;2024-03-06T08:41:21;4.90;99.90
59208;DHT22;44977;53.132;6.408;2024-03-06T08:46:22;4.90;99.90
59208;DHT22;44977;53.132;6.408;2024-03-06T08:51:24;4.90;99.90
59208;DHT22;44977;53.132;6.408;2024-03-06T08:56:27;4.90;99.90
59208;DHT22;44977;53.132;6.408;2024-03-06T09:01:28;4.90;99.90
59208;DHT22;44977;53.132;6.408;2024-03-06T09:06:28;5.00;99.90
59208;DHT22;44977;53.132;6.408;2024-03-06T09:11:32;5.00;99.90
59208;DHT22;44977;53.132;6.408;2024-03-06T09:16:32;5.00;99.90
59208;DHT22;44977;53.132;6.408;2024-03-06T09:21:33;5.10;99.90
59208;DHT22;44977;53.132;6.408;2024-03-06T09:26:37;5.10;99.90
59208;DHT22;44977;53.132;6.408;2024-03-06T09:31:37;5.20;99.90
59208;DHT22;44977;53.132;6.408;2024-03-06T09:36:48;5.20;99.90
59208;DHT22;44977;53.132;6.408;2024-03-06T09:41:53;5.30;99.90
59208;DHT22;44977;53.132;6.408;2024-03-06T09:46:57;5.30;99.90
59208;DHT22;44977;53.132;6.408;2024-03-06T09:52:00;5.30;99.90
59208;DHT22;44977;53.132;6.408;2024-03-06T09:57:04;5.30;99.90
59208;DHT22;44977;53.132;6.408;2024-03-06T10:02:35;5.30;99.90
59208;DHT22;44977;53.132;6.408;2024-03-06T10:07:34;5.40;99.90
59208;DHT22;44977;53.132;6.408;2024-03-06T10:12:35;5.40;99.90
59208;DHT22;44977;53.132;6.408;2024-03-06T10:17:37;5.40;99.90
59208;DHT22;44977;53.132;6.408;2024-03-06T10:22:39;5.50;99.90
59208;DHT22;44977;53.132;6.408;2024-03-06T10:27:40;5.50;99.90
59208;DHT22;44977;53.132;6.408;2024-03-06T10:32:41;5.50;99.90
59208;DHT22;44977;53.132;6.408;2024-03-06T10:37:45;5.50;99.90
59208;DHT22;44977;53.132;6.408;2024-03-06T10:42:46;5.60;99.90
59208;DHT22;44977;53.132;6.408;2024-03-06T10:47:48;5.60;99.90
59208;DHT22;44977;53.132;6.408;2024-03-06T10:52:58;5.70;99.90
59208;DHT22;44977;53.132;6.408;2024-03-06T10:58:00;5.70;99.90
59208;DHT22;44977;53.132;6.408;2024-03-06T11:03:01;5.80;99.90
59208;DHT22;44977;53.132;6.408;2024-03-06T11:08:11;5.80;99.90
59208;DHT22;44977;53.132;6.408;2024-03-06T11:29:22;6.10;99.90
59208;DHT22;44977;53.132;6.408;2024-03-06T11:34:23;6.10;99.90
59208;DHT22;44977;53.132;6.408;2024-03-06T11:39:42;6.20;99.90
59208;DHT22;44977;53.132;6.408;2024-03-06T11:44:54;6.30;99.90
59208;DHT22;44977;53.132;6.408;2024-03-06T11:49:55;6.30;99.90
59208;DHT22;44977;53.132;6.408;2024-03-06T11:54:56;6.30;99.90
59208;DHT22;44977;53.132;6.408;2024-03-06T12:00:03;6.40;99.90
59208;DHT22;44977;53.132;6.408;2024-03-06T12:05:07;6.50;99.90
59208;DHT22;44977;53.132;6.408;2024-03-06T12:10:36;6.50;99.90
59208;DHT22;44977;53.132;6.408;2024-03-06T12:15:37;6.50;99.90
59208;DHT22;44977;53.132;6.408;2024-03-06T12:20:41;6.60;99.90
59208;DHT22;44977;53.132;6.408;2024-03-06T12:25:45;6.60;99.90
59208;DHT22;44977;53.132;6.408;2024-03-06T12:30:46;6.70;99.90
59208;DHT22;44977;53.132;6.408;2024-03-06T12:36:03;6.70;99.90
59208;DHT22;44977;53.132;6.408;2024-03-06T12:41:07;6.80;99.90
59208;DHT22;44977;53.132;6.408;2024-03-06T12:46:11;6.80;99.90
59208;DHT22;44977;53.132;6.408;2024-03-06T12:51:12;6.90;99.90
59208;DHT22;44977;53.132;6.408;2024-03-06T12:56:12;6.90;99.90
59208;DHT22;44977;53.132;6.408;2024-03-06T13:01:13;7.00;99.90
59208;DHT22;44977;53.132;6.408;2024-03-06T13:06:16;7.10;99.90
59208;DHT22;44977;53.132;6.408;2024-03-06T13:11:17;7.10;99.90
59208;DHT22;44977;53.132;6.408;2024-03-06T13:16:18;7.20;99.90
59208;DHT22;44977;53.132;6.408;2024-03-06T13:21:18;7.20;99.90
59208;DHT22;44977;53.132;6.408;2024-03-06T13:26:19;7.20;99.90
59208;DHT22;44977;53.132;6.408;2024-03-06T13:31:21;7.30;99.90
59208;DHT22;44977;53.132;6.408;2024-03-06T13:36:59;7.40;99.90
59208;DHT22;44977;53.132;6.408;2024-03-06T13:42:00;7.50;99.90
59208;DHT22;44977;53.132;6.408;2024-03-06T13:47:01;7.60;99.90
59208;DHT22;44977;53.132;6.408;2024-03-06T13:52:03;7.70;99.90
59208;DHT22;44977;53.132;6.408;2024-03-06T13:57:09;7.70;99.90
59208;DHT22;44977;53.132;6.408;2024-03-06T14:02:09;7.90;99.90
59208;DHT22;44977;53.132;6.408;2024-03-06T14:07:10;8.00;99.90
59208;DHT22;44977;53.132;6.408;2024-03-06T14:12:14;8.10;99.90
59208;DHT22;44977;53.132;6.408;2024-03-06T14:17:14;8.20;99.90
59208;DHT22;44977;53.132;6.408;2024-03-06T14:22:15;8.30;99.90
59208;DHT22;44977;53.132;6.408;2024-03-06T14:27:17;8.40;99.90
59208;DHT22;44977;53.132;6.408;2024-03-06T14:32:19;8.50;99.90
59208;DHT22;44977;53.132;6.408;2024-03-06T14:37:23;8.50;99.90
59208;DHT22;44977;53.132;6.408;2024-03-06T14:42:29;8.60;99.90
59208;DHT22;44977;53.132;6.408;2024-03-06T14:47:32;8.60;99.90
59208;DHT22;44977;53.132;6.408;2024-03-06T14:52:32;8.60;99.90
59208;DHT22;44977;53.132;6.408;2024-03-06T14:57:35;8.70;99.90
59208;DHT22;44977;53.132;6.408;2024-03-06T15:02:40;8.70;99.90
59208;DHT22;44977;53.132;6.408;2024-03-06T15:07:43;8.60;99.90
59208;DHT22;44977;53.132;6.408;2024-03-06T15:12:44;8.70;99.90
59208;DHT22;44977;53.132;6.408;2024-03-06T15:17:49;8.70;99.90
59208;DHT22;44977;53.132;6.408;2024-03-06T15:22:50;8.80;99.90
59208;DHT22;44977;53.132;6.408;2024-03-06T15:27:59;8.90;99.90
59208;DHT22;44977;53.132;6.408;2024-03-06T15:33:01;8.90;99.90
59208;DHT22;44977;53.132;6.408;2024-03-06T15:38:03;8.90;99.90
59208;DHT22;44977;53.132;6.408;2024-03-06T15:43:04;8.90;99.90
59208;DHT22;44977;53.132;6.408;2024-03-06T15:48:05;8.90;99.90
59208;DHT22;44977;53.132;6.408;2024-03-06T15:53:41;8.90;99.90
59208;DHT22;44977;53.132;6.408;2024-03-06T15:58:42;8.80;99.90
59208;DHT22;44977;53.132;6.408;2024-03-06T16:03:43;8.80;99.90
59208;DHT22;44977;53.132;6.408;2024-03-06T16:08:44;8.80;99.90
59208;DHT22;44977;53.132;6.408;2024-03-06T16:13:45;8.70;99.90
59208;DHT22;44977;53.132;6.408;2024-03-06T16:18:45;8.70;99.90
59208;DHT22;44977;53.132;6.408;2024-03-06T16:23:54;8.60;99.90
59208;DHT22;44977;53.132;6.408;2024-03-06T16:28:58;8.60;99.90
59208;DHT22;44977;53.132;6.408;2024-03-06T16:33:59;8.50;99.90
59208;DHT22;44977;53.132;6.408;2024-03-06T16:38:59;8.40;99.90
59208;DHT22;44977;53.132;6.408;2024-03-06T16:44:00;8.40;99.90
59208;DHT22;44977;53.132;6.408;2024-03-06T16:49:01;8.30;99.90
59208;DHT22;44977;53.132;6.408;2024-03-06T16:54:02;8.30;99.90
59208;DHT22;44977;53.132;6.408;2024-03-06T16:59:03;8.20;99.90
59208;DHT22;44977;53.132;6.408;2024-03-06T17:04:05;8.20;99.90
59208;DHT22;44977;53.132;6.408;2024-03-06T17:09:08;8.20;99.90
59208;DHT22;44977;53.132;6.408;2024-03-06T17:14:14;8.10;99.90
59208;DHT22;44977;53.132;6.408;2024-03-06T17:19:21;8.10;99.90
59208;DHT22;44977;53.132;6.408;2024-03-06T17:24:27;8.10;99.90
59208;DHT22;44977;53.132;6.408;2024-03-06T17:29:37;8.00;99.90
59208;DHT22;44977;53.132;6.408;2024-03-06T17:34:51;8.00;99.90
59208;DHT22;44977;53.132;6.408;2024-03-06T17:39:52;7.90;99.90
59208;DHT22;44977;53.132;6.408;2024-03-06T17:44:52;8.00;99.90
59208;DHT22;44977;53.132;6.408;2024-03-06T17:49:53;7.90;99.90
59208;DHT22;44977;53.132;6.408;2024-03-06T17:54:54;7.90;99.90
59208;DHT22;44977;53.132;6.408;2024-03-06T17:59:55;7.80;99.90
59208;DHT22;44977;53.132;6.408;2024-03-06T18:04:55;7.80;99.90
59208;DHT22;44977;53.132;6.408;2024-03-06T18:09:56;7.80;99.90
59208;DHT22;44977;53.132;6.408;2024-03-06T18:14:57;7.70;99.90
59208;DHT22;44977;53.132;6.408;2024-03-06T18:19:59;7.60;99.90
59208;DHT22;44977;53.132;6.408;2024-03-06T18:25:00;7.60;99.90
59208;DHT22;44977;53.132;6.408;2024-03-06T18:30:05;7.50;99.90
59208;DHT22;44977;53.132;6.408;2024-03-06T18:35:06;7.50;99.90
59208;DHT22;44977;53.132;6.408;2024-03-06T18:40:07;7.40;99.90
59208;DHT22;44977;53.132;6.408;2024-03-06T18:45:09;7.30;99.90
59208;DHT22;44977;53.132;6.408;2024-03-06T18:50:10;7.20;99.90
59208;DHT22;44977;53.132;6.408;2024-03-06T18:55:14;7.20;99.90
59208;DHT22;44977;53.132;6.408;2024-03-06T19:00:18;7.10;99.90
59208;DHT22;44977;53.132;6.408;2024-03-06T19:05:18;7.00;99.90
59208;DHT22;44977;53.132;6.408;2024-03-06T19:10:20;7.00;99.90
59208;DHT22;44977;53.132;6.408;2024-03-06T19:15:23;7.00;99.90
59208;DHT22;44977;53.132;6.408;2024-03-06T19:20:24;7.00;99.90
59208;DHT22;44977;53.132;6.408;2024-03-06T19:25:25;6.90;99.90
59208;DHT22;44977;53.132;6.408;2024-03-06T19:30:28;6.90;99.90
59208;DHT22;44977;53.132;6.408;2024-03-06T19:35:42;7.00;99.90
59208;DHT22;44977;53.132;6.408;2024-03-06T19:40:46;7.00;99.90
59208;DHT22;44977;53.132;6.408;2024-03-06T19:45:47;7.00;99.90
59208;DHT22;44977;53.132;6.408;2024-03-06T19:50:47;7.00;99.90
59208;DHT22;44977;53.132;6.408;2024-03-06T19:55:48;7.00;99.90
59208;DHT22;44977;53.132;6.408;2024-03-06T20:00:49;7.00;99.90
59208;DHT22;44977;53.132;6.408;2024-03-06T20:05:52;7.00;99.90
59208;DHT22;44977;53.132;6.408;2024-03-06T20:10:52;7.00;99.90
59208;DHT22;44977;53.132;6.408;2024-03-06T20:15:56;7.10;99.90
59208;DHT22;44977;53.132;6.408;2024-03-06T20:20:57;7.10;99.90
59208;DHT22;44977;53.132;6.408;2024-03-06T20:25:58;7.10;99.90
59208;DHT22;44977;53.132;6.408;2024-03-06T20:31:08;7.10;99.90
59208;DHT22;44977;53.132;6.408;2024-03-06T20:36:09;7.10;99.90
59208;DHT22;44977;53.132;6.408;2024-03-06T20:41:11;7.00;99.90
59208;DHT22;44977;53.132;6.408;2024-03-06T20:46:16;7.10;99.90
59208;DHT22;44977;53.132;6.408;2024-03-06T20:51:19;7.00;99.90
59208;DHT22;44977;53.132;6.408;2024-03-06T20:56:20;7.00;99.90
59208;DHT22;44977;53.132;6.408;2024-03-06T21:01:21;7.00;99.90
59208;DHT22;44977;53.132;6.408;2024-03-06T21:06:21;7.10;99.90
59208;DHT22;44977;53.132;6.408;2024-03-06T21:11:44;7.00;99.90
59208;DHT22;44977;53.132;6.408;2024-03-06T21:16:47;7.00;99.90
59208;DHT22;44977;53.132;6.408;2024-03-06T21:21:48;7.00;99.90
59208;DHT22;44977;53.132;6.408;2024-03-06T21:26:49;7.00;99.90
59208;DHT22;44977;53.132;6.408;2024-03-06T21:31:50;7.00;99.90
59208;DHT22;44977;53.132;6.408;2024-03-06T21:36:50;6.90;99.90
59208;DHT22;44977;53.132;6.408;2024-03-06T21:41:51;6.90;99.90
59208;DHT22;44977;53.132;6.408;2024-03-06T21:46:52;6.80;99.90
59208;DHT22;44977;53.132;6.408;2024-03-06T21:51:56;6.80;99.90
59208;DHT22;44977;53.132;6.408;2024-03-06T21:56:56;6.70;99.90
59208;DHT22;44977;53.132;6.408;2024-03-06T22:01:57;6.60;99.90
59208;DHT22;44977;53.132;6.408;2024-03-06T22:07:01;6.50;99.90
59208;DHT22;44977;53.132;6.408;2024-03-06T22:12:04;6.40;99.90
59208;DHT22;44977;53.132;6.408;2024-03-06T22:17:05;6.40;99.90
59208;DHT22;44977;53.132;6.408;2024-03-06T22:22:06;6.30;99.90
59208;DHT22;44977;53.132;6.408;2024-03-06T22:27:07;6.20;99.90
59208;DHT22;44977;53.132;6.408;2024-03-06T22:32:19;6.10;99.90
59208;DHT22;44977;53.132;6.408;2024-03-06T22:37:20;6.10;99.90
59208;DHT22;44977;53.132;6.408;2024-03-06T22:42:32;6.00;99.90
59208;DHT22;44977;53.132;6.408;2024-03-06T22:47:33;6.00;99.90
59208;DHT22;44977;53.132;6.408;2024-03-06T22:52:36;5.90;99.90
59208;DHT22;44977;53.132;6.408;2024-03-06T22:57:36;5.90;99.90
59208;DHT22;44977;53.132;6.408;2024-03-06T23:02:42;5.80;99.90
59208;DHT22;44977;53.132;6.408;2024-03-06T23:07:45;5.80;99.90
59208;DHT22;44977;53.132;6.408;2024-03-06T23:12:49;5.70;99.90
59208;DHT22;44977;53.132;6.408;2024-03-06T23:17:59;5.70;99.90
59208;DHT22;44977;53.132;6.408;2024-03-06T23:23:00;5.60;99.90
59208;DHT22;44977;53.132;6.408;2024-03-06T23:28:03;5.60;99.90
59208;DHT22;44977;53.132;6.408;2024-03-06T23:33:04;5.60;99.90
59208;DHT22;44977;53.132;6.408;2024-03-06T23:38:05;5.50;99.90
59208;DHT22;44977;53.132;6.408;2024-03-06T23:43:09;5.50;99.90
59208;DHT22;44977;53.132;6.408;2024-03-06T23:48:10;5.40;99.90
59208;DHT22;44977;53.132;6.408;2024-03-06T23:53:11;5.40;99.90
59208;DHT22;44977;53.132;6.408;2024-03-06T23:58:11;5.30;99.90
